sensor_id;sensor_type;location;lat;lon;timestamp;P1;durP1;ratioP1;P2;durP2;ratioP2
23113;SDS011;11726;50.122;8.832;2023-05-14T00:00:21;10.35;;;8.02;;
23113;SDS011;11726;50.122;8.832;2023-05-14T00:02:48;8.48;;;7.53;;
23113;SDS011;11726;50.122;8.832;2023-05-14T00:05:15;9.07;;;7.15;;
23113;SDS011;11726;50.122;8.832;2023-05-14T00:07:41;8.88;;;7.85;;
23113;SDS011;11726;50.122;8.832;2023-05-14T00:10:08;10.32;;;8.10;;
23113;SDS011;11726;50.122;8.832;2023-05-14T00:12:35;11.75;;;8.45;;
23113;SDS011;11726;50.122;8.832;2023-05-14T00:15:02;10.07;;;7.45;;
23113;SDS011;11726;50.122;8.832;2023-05-14T00:17:28;11.52;;;8.30;;
23113;SDS011;11726;50.122;8.832;2023-05-14T00:19:55;9.13;;;8.18;;
23113;SDS011;11726;50.122;8.832;2023-05-14T00:22:22;11.90;;;9.20;;
23113;SDS011;11726;50.122;8.832;2023-05-14T00:24:48;15.27;;;10.10;;
23113;SDS011;11726;50.122;8.832;2023-05-14T00:27:15;14.95;;;10.93;;
23113;SDS011;11726;50.122;8.832;2023-05-14T00:29:42;13.63;;;11.57;;
23113;SDS011;11726;50.122;8.832;2023-05-14T00:32:10;12.98;;;11.05;;
23113;SDS011;11726;50.122;8.832;2023-05-14T00:34:37;10.10;;;8.63;;
23113;SDS011;11726;50.122;8.832;2023-05-14T00:37:03;10.85;;;8.00;;
23113;SDS011;11726;50.122;8.832;2023-05-14T00:39:30;9.85;;;8.02;;
23113;SDS011;11726;50.122;8.832;2023-05-14T00:41:57;15.00;;;11.02;;
23113;SDS011;11726;50.122;8.832;2023-05-14T00:44:24;10.40;;;9.20;;
23113;SDS011;11726;50.122;8.832;2023-05-14T00:46:52;11.18;;;9.27;;
23113;SDS011;11726;50.122;8.832;2023-05-14T00:49:19;13.50;;;9.82;;
23113;SDS011;11726;50.122;8.832;2023-05-14T00:51:46;10.35;;;8.05;;
23113;SDS011;11726;50.122;8.832;2023-05-14T00:54:14;9.55;;;8.00;;
23113;SDS011;11726;50.122;8.832;2023-05-14T00:56:43;9.95;;;8.60;;
23113;SDS011;11726;50.122;8.832;2023-05-14T00:59:10;12.18;;;8.43;;
23113;SDS011;11726;50.122;8.832;2023-05-14T01:01:37;11.48;;;8.38;;
23113;SDS011;11726;50.122;8.832;2023-05-14T01:04:04;11.10;;;7.82;;
23113;SDS011;11726;50.122;8.832;2023-05-14T01:07:15;11.75;;;7.72;;
23113;SDS011;11726;50.122;8.832;2023-05-14T01:15:11;8.95;;;7.57;;
23113;SDS011;11726;50.122;8.832;2023-05-14T01:17:41;7.80;;;7.00;;
23113;SDS011;11726;50.122;8.832;2023-05-14T01:20:11;9.95;;;6.97;;
23113;SDS011;11726;50.122;8.832;2023-05-14T01:22:38;9.65;;;7.38;;
23113;SDS011;11726;50.122;8.832;2023-05-14T01:25:05;10.40;;;7.65;;
23113;SDS011;11726;50.122;8.832;2023-05-14T01:27:48;8.85;;;7.30;;
23113;SDS011;11726;50.122;8.832;2023-05-14T01:30:27;7.30;;;6.55;;
23113;SDS011;11726;50.122;8.832;2023-05-14T01:32:55;8.13;;;7.10;;
23113;SDS011;11726;50.122;8.832;2023-05-14T01:35:27;10.32;;;7.28;;
23113;SDS011;11726;50.122;8.832;2023-05-14T01:38:02;10.13;;;7.65;;
23113;SDS011;11726;50.122;8.832;2023-05-14T01:40:31;10.05;;;7.13;;
23113;SDS011;11726;50.122;8.832;2023-05-14T01:42:59;9.23;;;7.05;;
23113;SDS011;11726;50.122;8.832;2023-05-14T01:45:27;12.25;;;7.57;;
23113;SDS011;11726;50.122;8.832;2023-05-14T01:47:55;10.60;;;7.78;;
23113;SDS011;11726;50.122;8.832;2023-05-14T01:50:22;11.18;;;7.35;;
23113;SDS011;11726;50.122;8.832;2023-05-14T01:52:49;9.43;;;7.35;;
23113;SDS011;11726;50.122;8.832;2023-05-14T01:55:18;7.97;;;7.28;;
23113;SDS011;11726;50.122;8.832;2023-05-14T01:57:45;8.20;;;7.40;;
23113;SDS011;11726;50.122;8.832;2023-05-14T02:00:11;9.88;;;6.75;;
23113;SDS011;11726;50.122;8.832;2023-05-14T02:02:38;11.65;;;7.65;;
23113;SDS011;11726;50.122;8.832;2023-05-14T02:05:06;8.35;;;7.18;;
23113;SDS011;11726;50.122;8.832;2023-05-14T02:07:33;7.35;;;6.65;;
23113;SDS011;11726;50.122;8.832;2023-05-14T02:09:59;9.18;;;7.20;;
23113;SDS011;11726;50.122;8.832;2023-05-14T02:12:26;8.95;;;7.35;;
23113;SDS011;11726;50.122;8.832;2023-05-14T02:14:53;7.53;;;6.82;;
23113;SDS011;11726;50.122;8.832;2023-05-14T02:17:19;10.57;;;7.40;;
23113;SDS011;11726;50.122;8.832;2023-05-14T02:19:46;7.68;;;6.97;;
23113;SDS011;11726;50.122;8.832;2023-05-14T02:22:13;11.63;;;7.65;;
23113;SDS011;11726;50.122;8.832;2023-05-14T02:24:39;10.02;;;7.13;;
23113;SDS011;11726;50.122;8.832;2023-05-14T02:27:06;7.82;;;7.13;;
23113;SDS011;11726;50.122;8.832;2023-05-14T02:29:32;8.32;;;6.85;;
23113;SDS011;11726;50.122;8.832;2023-05-14T02:31:59;11.07;;;7.60;;
23113;SDS011;11726;50.122;8.832;2023-05-14T02:34:25;8.40;;;6.70;;
23113;SDS011;11726;50.122;8.832;2023-05-14T02:36:52;8.85;;;6.95;;
23113;SDS011;11726;50.122;8.832;2023-05-14T02:39:18;7.57;;;6.82;;
23113;SDS011;11726;50.122;8.832;2023-05-14T02:41:45;10.55;;;7.00;;
23113;SDS011;11726;50.122;8.832;2023-05-14T02:44:12;7.55;;;6.78;;
23113;SDS011;11726;50.122;8.832;2023-05-14T02:46:38;7.55;;;6.75;;
23113;SDS011;11726;50.122;8.832;2023-05-14T02:49:05;7.53;;;6.65;;
23113;SDS011;11726;50.122;8.832;2023-05-14T02:51:32;8.20;;;7.07;;
23113;SDS011;11726;50.122;8.832;2023-05-14T02:53:58;9.13;;;7.13;;
23113;SDS011;11726;50.122;8.832;2023-05-14T02:56:25;9.65;;;6.82;;
23113;SDS011;11726;50.122;8.832;2023-05-14T02:58:51;12.15;;;7.72;;
23113;SDS011;11726;50.122;8.832;2023-05-14T03:01:19;8.95;;;7.43;;
23113;SDS011;11726;50.122;8.832;2023-05-14T03:03:46;8.68;;;7.38;;
23113;SDS011;11726;50.122;8.832;2023-05-14T03:06:13;12.32;;;7.72;;
23113;SDS011;11726;50.122;8.832;2023-05-14T03:08:40;11.60;;;7.72;;
23113;SDS011;11726;50.122;8.832;2023-05-14T03:11:06;10.55;;;7.88;;
23113;SDS011;11726;50.122;8.832;2023-05-14T03:13:33;8.23;;;7.32;;
23113;SDS011;11726;50.122;8.832;2023-05-14T03:16:00;9.23;;;7.80;;
23113;SDS011;11726;50.122;8.832;2023-05-14T03:18:26;8.18;;;7.38;;
23113;SDS011;11726;50.122;8.832;2023-05-14T03:20:55;11.45;;;8.25;;
23113;SDS011;11726;50.122;8.832;2023-05-14T03:23:22;9.27;;;7.45;;
23113;SDS011;11726;50.122;8.832;2023-05-14T03:25:48;9.95;;;8.90;;
23113;SDS011;11726;50.122;8.832;2023-05-14T03:28:16;13.18;;;9.10;;
23113;SDS011;11726;50.122;8.832;2023-05-14T03:30:42;12.43;;;8.52;;
23113;SDS011;11726;50.122;8.832;2023-05-14T03:33:09;10.70;;;8.90;;
23113;SDS011;11726;50.122;8.832;2023-05-14T03:35:36;12.88;;;8.90;;
23113;SDS011;11726;50.122;8.832;2023-05-14T03:38:02;14.48;;;9.88;;
23113;SDS011;11726;50.122;8.832;2023-05-14T03:40:29;11.02;;;9.10;;
23113;SDS011;11726;50.122;8.832;2023-05-14T03:42:56;12.45;;;9.85;;
23113;SDS011;11726;50.122;8.832;2023-05-14T03:45:22;11.07;;;9.20;;
23113;SDS011;11726;50.122;8.832;2023-05-14T03:47:49;9.48;;;8.50;;
23113;SDS011;11726;50.122;8.832;2023-05-14T03:50:16;9.80;;;8.80;;
23113;SDS011;11726;50.122;8.832;2023-05-14T03:52:42;10.88;;;8.57;;
23113;SDS011;11726;50.122;8.832;2023-05-14T03:55:09;13.10;;;8.48;;
23113;SDS011;11726;50.122;8.832;2023-05-14T03:57:36;9.20;;;8.25;;
23113;SDS011;11726;50.122;8.832;2023-05-14T04:00:03;11.20;;;9.13;;
23113;SDS011;11726;50.122;8.832;2023-05-14T04:02:30;12.40;;;9.32;;
23113;SDS011;11726;50.122;8.832;2023-05-14T04:04:57;10.57;;;8.80;;
23113;SDS011;11726;50.122;8.832;2023-05-14T04:07:23;10.63;;;8.35;;
23113;SDS011;11726;50.122;8.832;2023-05-14T04:09:50;11.82;;;9.23;;
23113;SDS011;11726;50.122;8.832;2023-05-14T04:12:17;9.73;;;8.73;;
23113;SDS011;11726;50.122;8.832;2023-05-14T04:14:43;9.20;;;8.27;;
23113;SDS011;11726;50.122;8.832;2023-05-14T04:17:10;12.27;;;8.73;;
23113;SDS011;11726;50.122;8.832;2023-05-14T04:19:37;10.77;;;8.65;;
23113;SDS011;11726;50.122;8.832;2023-05-14T04:22:04;11.38;;;9.35;;
23113;SDS011;11726;50.122;8.832;2023-05-14T04:24:31;10.32;;;9.23;;
23113;SDS011;11726;50.122;8.832;2023-05-14T04:26:57;9.45;;;8.55;;
23113;SDS011;11726;50.122;8.832;2023-05-14T04:29:24;11.05;;;9.45;;
23113;SDS011;11726;50.122;8.832;2023-05-14T04:31:50;8.95;;;8.05;;
23113;SDS011;11726;50.122;8.832;2023-05-14T04:34:17;10.25;;;9.18;;
23113;SDS011;11726;50.122;8.832;2023-05-14T04:36:44;9.40;;;8.27;;
23113;SDS011;11726;50.122;8.832;2023-05-14T04:39:10;10.88;;;8.55;;
23113;SDS011;11726;50.122;8.832;2023-05-14T04:41:40;10.77;;;8.73;;
23113;SDS011;11726;50.122;8.832;2023-05-14T04:44:07;12.13;;;8.05;;
23113;SDS011;11726;50.122;8.832;2023-05-14T04:46:34;11.60;;;8.27;;
23113;SDS011;11726;50.122;8.832;2023-05-14T04:49:00;11.40;;;8.57;;
23113;SDS011;11726;50.122;8.832;2023-05-14T04:51:27;11.20;;;9.20;;
23113;SDS011;11726;50.122;8.832;2023-05-14T04:53:54;9.95;;;8.18;;
23113;SDS011;11726;50.122;8.832;2023-05-14T04:56:20;10.75;;;8.38;;
23113;SDS011;11726;50.122;8.832;2023-05-14T04:58:47;9.65;;;8.68;;
23113;SDS011;11726;50.122;8.832;2023-05-14T05:01:14;12.27;;;8.45;;
23113;SDS011;11726;50.122;8.832;2023-05-14T05:03:40;9.68;;;8.68;;
23113;SDS011;11726;50.122;8.832;2023-05-14T05:06:07;9.48;;;8.20;;
23113;SDS011;11726;50.122;8.832;2023-05-14T05:08:35;11.80;;;8.43;;
23113;SDS011;11726;50.122;8.832;2023-05-14T05:11:01;11.93;;;9.00;;
23113;SDS011;11726;50.122;8.832;2023-05-14T05:13:28;9.48;;;7.88;;
23113;SDS011;11726;50.122;8.832;2023-05-14T05:15:54;9.65;;;8.30;;
23113;SDS011;11726;50.122;8.832;2023-05-14T05:18:21;10.15;;;7.57;;
23113;SDS011;11726;50.122;8.832;2023-05-14T05:20:48;9.18;;;8.18;;
23113;SDS011;11726;50.122;8.832;2023-05-14T05:23:14;8.98;;;8.15;;
23113;SDS011;11726;50.122;8.832;2023-05-14T05:25:41;9.43;;;8.30;;
23113;SDS011;11726;50.122;8.832;2023-05-14T05:28:08;8.35;;;7.55;;
23113;SDS011;11726;50.122;8.832;2023-05-14T05:30:34;8.10;;;7.40;;
23113;SDS011;11726;50.122;8.832;2023-05-14T05:33:01;10.23;;;7.93;;
23113;SDS011;11726;50.122;8.832;2023-05-14T05:35:28;8.63;;;7.43;;
23113;SDS011;11726;50.122;8.832;2023-05-14T05:37:56;11.23;;;7.90;;
23113;SDS011;11726;50.122;8.832;2023-05-14T05:40:26;10.43;;;7.57;;
23113;SDS011;11726;50.122;8.832;2023-05-14T05:42:53;7.50;;;6.85;;
23113;SDS011;11726;50.122;8.832;2023-05-14T05:45:19;7.82;;;7.07;;
23113;SDS011;11726;50.122;8.832;2023-05-14T05:47:46;7.85;;;6.97;;
23113;SDS011;11726;50.122;8.832;2023-05-14T05:50:13;8.85;;;7.50;;
23113;SDS011;11726;50.122;8.832;2023-05-14T05:52:40;8.55;;;7.45;;
23113;SDS011;11726;50.122;8.832;2023-05-14T05:55:07;8.13;;;7.35;;
23113;SDS011;11726;50.122;8.832;2023-05-14T05:57:34;8.18;;;7.30;;
23113;SDS011;11726;50.122;8.832;2023-05-14T06:00:00;7.97;;;6.72;;
23113;SDS011;11726;50.122;8.832;2023-05-14T06:02:37;9.98;;;7.80;;
23113;SDS011;11726;50.122;8.832;2023-05-14T06:05:06;7.90;;;7.10;;
23113;SDS011;11726;50.122;8.832;2023-05-14T06:07:36;7.88;;;7.18;;
23113;SDS011;11726;50.122;8.832;2023-05-14T06:10:03;9.30;;;7.72;;
23113;SDS011;11726;50.122;8.832;2023-05-14T06:12:31;7.88;;;6.95;;
23113;SDS011;11726;50.122;8.832;2023-05-14T06:14:57;8.27;;;7.07;;
23113;SDS011;11726;50.122;8.832;2023-05-14T06:17:24;7.53;;;6.82;;
23113;SDS011;11726;50.122;8.832;2023-05-14T06:19:51;8.93;;;6.38;;
23113;SDS011;11726;50.122;8.832;2023-05-14T06:22:18;7.70;;;6.90;;
23113;SDS011;11726;50.122;8.832;2023-05-14T06:24:45;7.60;;;6.72;;
23113;SDS011;11726;50.122;8.832;2023-05-14T06:27:12;8.35;;;6.25;;
23113;SDS011;11726;50.122;8.832;2023-05-14T06:29:39;8.07;;;6.40;;
23113;SDS011;11726;50.122;8.832;2023-05-14T06:32:06;6.43;;;5.72;;
23113;SDS011;11726;50.122;8.832;2023-05-14T06:34:33;7.00;;;6.30;;
23113;SDS011;11726;50.122;8.832;2023-05-14T06:36:59;7.13;;;6.20;;
23113;SDS011;11726;50.122;8.832;2023-05-14T06:39:29;8.57;;;5.80;;
23113;SDS011;11726;50.122;8.832;2023-05-14T06:41:55;7.10;;;6.40;;
23113;SDS011;11726;50.122;8.832;2023-05-14T06:44:22;6.75;;;5.70;;
23113;SDS011;11726;50.122;8.832;2023-05-14T06:46:49;6.63;;;6.03;;
23113;SDS011;11726;50.122;8.832;2023-05-14T06:49:15;6.10;;;5.50;;
23113;SDS011;11726;50.122;8.832;2023-05-14T06:51:42;6.78;;;5.80;;
23113;SDS011;11726;50.122;8.832;2023-05-14T06:54:09;6.57;;;5.97;;
23113;SDS011;11726;50.122;8.832;2023-05-14T06:56:35;8.13;;;5.88;;
23113;SDS011;11726;50.122;8.832;2023-05-14T06:59:02;5.95;;;5.45;;
23113;SDS011;11726;50.122;8.832;2023-05-14T07:01:29;6.28;;;5.68;;
23113;SDS011;11726;50.122;8.832;2023-05-14T07:03:55;6.00;;;5.38;;
23113;SDS011;11726;50.122;8.832;2023-05-14T07:06:22;5.72;;;5.07;;
23113;SDS011;11726;50.122;8.832;2023-05-14T07:08:49;5.80;;;5.20;;
23113;SDS011;11726;50.122;8.832;2023-05-14T07:11:15;5.63;;;4.60;;
23113;SDS011;11726;50.122;8.832;2023-05-14T07:13:42;5.82;;;4.90;;
23113;SDS011;11726;50.122;8.832;2023-05-14T07:16:09;6.80;;;4.40;;
23113;SDS011;11726;50.122;8.832;2023-05-14T07:18:36;4.63;;;4.00;;
23113;SDS011;11726;50.122;8.832;2023-05-14T07:21:02;6.40;;;4.45;;
23113;SDS011;11726;50.122;8.832;2023-05-14T07:23:32;5.00;;;3.88;;
23113;SDS011;11726;50.122;8.832;2023-05-14T07:26:01;3.85;;;3.40;;
23113;SDS011;11726;50.122;8.832;2023-05-14T07:28:29;3.83;;;3.50;;
23113;SDS011;11726;50.122;8.832;2023-05-14T07:30:55;4.20;;;3.80;;
23113;SDS011;11726;50.122;8.832;2023-05-14T07:33:22;4.85;;;3.80;;
23113;SDS011;11726;50.122;8.832;2023-05-14T07:35:50;4.18;;;3.58;;
23113;SDS011;11726;50.122;8.832;2023-05-14T07:38:17;4.03;;;3.55;;
23113;SDS011;11726;50.122;8.832;2023-05-14T07:40:44;5.53;;;3.55;;
23113;SDS011;11726;50.122;8.832;2023-05-14T07:43:11;3.72;;;3.42;;
23113;SDS011;11726;50.122;8.832;2023-05-14T07:45:37;3.70;;;3.40;;
23113;SDS011;11726;50.122;8.832;2023-05-14T07:48:05;4.25;;;3.33;;
23113;SDS011;11726;50.122;8.832;2023-05-14T07:50:32;3.47;;;3.17;;
23113;SDS011;11726;50.122;8.832;2023-05-14T07:52:59;4.47;;;3.40;;
23113;SDS011;11726;50.122;8.832;2023-05-14T07:55:26;4.03;;;3.30;;
23113;SDS011;11726;50.122;8.832;2023-05-14T07:57:52;3.75;;;3.45;;
23113;SDS011;11726;50.122;8.832;2023-05-14T08:00:19;4.15;;;3.60;;
23113;SDS011;11726;50.122;8.832;2023-05-14T08:02:46;4.45;;;3.50;;
23113;SDS011;11726;50.122;8.832;2023-05-14T08:05:14;4.10;;;3.45;;
23113;SDS011;11726;50.122;8.832;2023-05-14T08:07:41;4.10;;;3.40;;
23113;SDS011;11726;50.122;8.832;2023-05-14T08:10:08;3.45;;;3.03;;
23113;SDS011;11726;50.122;8.832;2023-05-14T08:12:35;4.93;;;3.50;;
23113;SDS011;11726;50.122;8.832;2023-05-14T08:15:02;4.38;;;3.50;;
23113;SDS011;11726;50.122;8.832;2023-05-14T08:17:28;3.65;;;3.03;;
23113;SDS011;11726;50.122;8.832;2023-05-14T08:19:55;4.97;;;3.30;;
23113;SDS011;11726;50.122;8.832;2023-05-14T08:22:22;5.20;;;3.00;;
23113;SDS011;11726;50.122;8.832;2023-05-14T08:24:49;3.90;;;3.50;;
23113;SDS011;11726;50.122;8.832;2023-05-14T08:27:15;4.40;;;3.08;;
23113;SDS011;11726;50.122;8.832;2023-05-14T08:29:42;3.45;;;3.15;;
23113;SDS011;11726;50.122;8.832;2023-05-14T08:32:08;4.80;;;4.10;;
23113;SDS011;11726;50.122;8.832;2023-05-14T08:34:48;4.55;;;4.15;;
23113;SDS011;11726;50.122;8.832;2023-05-14T08:37:14;4.88;;;2.90;;
23113;SDS011;11726;50.122;8.832;2023-05-14T08:39:41;3.65;;;2.80;;
23113;SDS011;11726;50.122;8.832;2023-05-14T08:42:07;2.67;;;2.47;;
23113;SDS011;11726;50.122;8.832;2023-05-14T08:44:42;2.70;;;2.50;;
23113;SDS011;11726;50.122;8.832;2023-05-14T08:47:13;3.13;;;2.83;;
23113;SDS011;11726;50.122;8.832;2023-05-14T08:49:42;3.25;;;2.53;;
23113;SDS011;11726;50.122;8.832;2023-05-14T08:52:11;2.83;;;2.60;;
23113;SDS011;11726;50.122;8.832;2023-05-14T08:54:41;3.33;;;2.58;;
23113;SDS011;11726;50.122;8.832;2023-05-14T08:57:08;2.78;;;2.58;;
23113;SDS011;11726;50.122;8.832;2023-05-14T08:59:35;3.65;;;2.88;;
23113;SDS011;11726;50.122;8.832;2023-05-14T09:02:02;3.75;;;2.40;;
23113;SDS011;11726;50.122;8.832;2023-05-14T09:04:32;2.97;;;2.55;;
23113;SDS011;11726;50.122;8.832;2023-05-14T09:07:00;2.70;;;2.50;;
23113;SDS011;11726;50.122;8.832;2023-05-14T09:09:27;3.17;;;2.50;;
23113;SDS011;11726;50.122;8.832;2023-05-14T09:11:54;2.97;;;2.45;;
23113;SDS011;11726;50.122;8.832;2023-05-14T09:14:20;3.28;;;1.80;;
23113;SDS011;11726;50.122;8.832;2023-05-14T09:16:48;1.90;;;1.80;;
23113;SDS011;11726;50.122;8.832;2023-05-14T09:19:16;2.58;;;2.38;;
23113;SDS011;11726;50.122;8.832;2023-05-14T09:21:47;2.40;;;2.20;;
23113;SDS011;11726;50.122;8.832;2023-05-14T09:24:18;2.65;;;2.45;;
23113;SDS011;11726;50.122;8.832;2023-05-14T09:26:50;2.50;;;2.28;;
23113;SDS011;11726;50.122;8.832;2023-05-14T09:29:27;2.47;;;2.28;;
23113;SDS011;11726;50.122;8.832;2023-05-14T09:31:54;2.75;;;2.50;;
23113;SDS011;11726;50.122;8.832;2023-05-14T09:34:26;2.75;;;2.50;;
23113;SDS011;11726;50.122;8.832;2023-05-14T09:36:58;2.75;;;2.53;;
23113;SDS011;11726;50.122;8.832;2023-05-14T09:39:26;2.45;;;2.25;;
23113;SDS011;11726;50.122;8.832;2023-05-14T09:41:53;3.35;;;2.47;;
23113;SDS011;11726;50.122;8.832;2023-05-14T09:44:21;3.75;;;2.50;;
23113;SDS011;11726;50.122;8.832;2023-05-14T09:46:49;2.80;;;2.60;;
23113;SDS011;11726;50.122;8.832;2023-05-14T09:49:16;2.70;;;2.50;;
23113;SDS011;11726;50.122;8.832;2023-05-14T09:51:44;2.60;;;2.40;;
23113;SDS011;11726;50.122;8.832;2023-05-14T09:54:11;3.30;;;2.60;;
23113;SDS011;11726;50.122;8.832;2023-05-14T09:56:37;2.90;;;2.60;;
23113;SDS011;11726;50.122;8.832;2023-05-14T09:59:04;4.05;;;2.65;;
23113;SDS011;11726;50.122;8.832;2023-05-14T10:01:31;4.22;;;2.50;;
23113;SDS011;11726;50.122;8.832;2023-05-14T10:03:58;4.35;;;2.55;;
23113;SDS011;11726;50.122;8.832;2023-05-14T10:06:29;3.05;;;2.83;;
23113;SDS011;11726;50.122;8.832;2023-05-14T10:09:00;3.60;;;2.63;;
23113;SDS011;11726;50.122;8.832;2023-05-14T10:11:32;4.82;;;2.30;;
23113;SDS011;11726;50.122;8.832;2023-05-14T10:14:06;2.50;;;2.30;;
23113;SDS011;11726;50.122;8.832;2023-05-14T10:16:39;2.00;;;1.90;;
23113;SDS011;11726;50.122;8.832;2023-05-14T10:19:11;4.75;;;2.05;;
23113;SDS011;11726;50.122;8.832;2023-05-14T10:21:40;2.63;;;2.25;;
23113;SDS011;11726;50.122;8.832;2023-05-14T10:24:10;2.80;;;2.58;;
23113;SDS011;11726;50.122;8.832;2023-05-14T10:26:38;2.85;;;2.50;;
23113;SDS011;11726;50.122;8.832;2023-05-14T10:29:10;2.67;;;2.47;;
23113;SDS011;11726;50.122;8.832;2023-05-14T10:37:09;2.63;;;2.03;;
23113;SDS011;11726;50.122;8.832;2023-05-14T10:39:40;2.03;;;1.92;;
23113;SDS011;11726;50.122;8.832;2023-05-14T10:42:17;2.05;;;1.95;;
23113;SDS011;11726;50.122;8.832;2023-05-14T10:44:57;2.70;;;1.90;;
23113;SDS011;11726;50.122;8.832;2023-05-14T10:47:26;1.88;;;1.77;;
23113;SDS011;11726;50.122;8.832;2023-05-14T10:49:55;2.28;;;2.05;;
23113;SDS011;11726;50.122;8.832;2023-05-14T10:52:23;1.75;;;1.65;;
23113;SDS011;11726;50.122;8.832;2023-05-14T10:55:01;2.03;;;1.75;;
23113;SDS011;11726;50.122;8.832;2023-05-14T10:57:35;1.63;;;1.52;;
23113;SDS011;11726;50.122;8.832;2023-05-14T11:00:03;2.03;;;1.88;;
23113;SDS011;11726;50.122;8.832;2023-05-14T11:02:39;4.05;;;1.85;;
23113;SDS011;11726;50.122;8.832;2023-05-14T11:05:09;2.22;;;2.03;;
23113;SDS011;11726;50.122;8.832;2023-05-14T11:07:43;2.40;;;2.20;;
23113;SDS011;11726;50.122;8.832;2023-05-14T11:10:15;2.20;;;1.98;;
23113;SDS011;11726;50.122;8.832;2023-05-14T11:12:44;1.90;;;1.80;;
23113;SDS011;11726;50.122;8.832;2023-05-14T11:15:18;2.05;;;1.95;;
23113;SDS011;11726;50.122;8.832;2023-05-14T11:17:47;2.70;;;2.03;;
23113;SDS011;11726;50.122;8.832;2023-05-14T11:20:15;2.20;;;2.00;;
23113;SDS011;11726;50.122;8.832;2023-05-14T11:22:43;2.10;;;1.90;;
23113;SDS011;11726;50.122;8.832;2023-05-14T11:25:11;2.08;;;1.83;;
23113;SDS011;11726;50.122;8.832;2023-05-14T11:27:41;1.92;;;1.60;;
23113;SDS011;11726;50.122;8.832;2023-05-14T11:30:18;2.25;;;1.75;;
23113;SDS011;11726;50.122;8.832;2023-05-14T11:32:47;2.40;;;2.20;;
23113;SDS011;11726;50.122;8.832;2023-05-14T11:45:57;2.47;;;2.28;;
23113;SDS011;11726;50.122;8.832;2023-05-14T11:48:25;2.60;;;2.40;;
23113;SDS011;11726;50.122;8.832;2023-05-14T11:50:52;2.38;;;2.17;;
23113;SDS011;11726;50.122;8.832;2023-05-14T11:53:28;2.70;;;2.50;;
23113;SDS011;11726;50.122;8.832;2023-05-14T11:55:56;2.88;;;2.38;;
23113;SDS011;11726;50.122;8.832;2023-05-14T11:58:23;2.60;;;2.40;;
23113;SDS011;11726;50.122;8.832;2023-05-14T12:00:51;2.45;;;2.28;;
23113;SDS011;11726;50.122;8.832;2023-05-14T12:03:20;2.58;;;2.20;;
23113;SDS011;11726;50.122;8.832;2023-05-14T12:08:33;2.40;;;2.20;;
23113;SDS011;11726;50.122;8.832;2023-05-14T12:11:00;2.30;;;2.10;;
23113;SDS011;11726;50.122;8.832;2023-05-14T12:13:27;2.50;;;2.30;;
23113;SDS011;11726;50.122;8.832;2023-05-14T12:15:56;2.65;;;2.45;;
23113;SDS011;11726;50.122;8.832;2023-05-14T12:18:29;2.50;;;2.20;;
23113;SDS011;11726;50.122;8.832;2023-05-14T12:21:03;2.60;;;2.40;;
23113;SDS011;11726;50.122;8.832;2023-05-14T12:23:32;3.55;;;2.70;;
23113;SDS011;11726;50.122;8.832;2023-05-14T12:26:03;3.35;;;2.30;;
23113;SDS011;11726;50.122;8.832;2023-05-14T12:28:32;2.70;;;2.50;;
23113;SDS011;11726;50.122;8.832;2023-05-14T12:31:04;2.80;;;2.58;;
23113;SDS011;11726;50.122;8.832;2023-05-14T12:33:32;2.53;;;2.33;;
23113;SDS011;11726;50.122;8.832;2023-05-14T12:35:59;6.00;;;2.58;;
23113;SDS011;11726;50.122;8.832;2023-05-14T12:38:31;2.60;;;2.40;;
23113;SDS011;11726;50.122;8.832;2023-05-14T12:40:58;2.72;;;2.33;;
23113;SDS011;11726;50.122;8.832;2023-05-14T12:43:28;3.92;;;2.60;;
23113;SDS011;11726;50.122;8.832;2023-05-14T12:45:57;2.45;;;2.25;;
23113;SDS011;11726;50.122;8.832;2023-05-14T12:48:30;2.70;;;2.50;;
23113;SDS011;11726;50.122;8.832;2023-05-14T12:50:56;2.70;;;2.50;;
23113;SDS011;11726;50.122;8.832;2023-05-14T12:53:25;2.72;;;2.45;;
23113;SDS011;11726;50.122;8.832;2023-05-14T12:55:52;2.50;;;2.30;;
23113;SDS011;11726;50.122;8.832;2023-05-14T12:58:20;2.45;;;2.25;;
23113;SDS011;11726;50.122;8.832;2023-05-14T13:00:46;3.55;;;2.33;;
23113;SDS011;11726;50.122;8.832;2023-05-14T13:03:13;2.55;;;1.98;;
23113;SDS011;11726;50.122;8.832;2023-05-14T13:05:40;3.58;;;1.92;;
23113;SDS011;11726;50.122;8.832;2023-05-14T13:08:07;4.80;;;2.20;;
23113;SDS011;11726;50.122;8.832;2023-05-14T13:10:34;2.30;;;2.10;;
23113;SDS011;11726;50.122;8.832;2023-05-14T13:13:01;2.50;;;2.30;;
23113;SDS011;11726;50.122;8.832;2023-05-14T13:15:28;2.70;;;2.00;;
23113;SDS011;11726;50.122;8.832;2023-05-14T13:17:57;2.30;;;2.10;;
23113;SDS011;11726;50.122;8.832;2023-05-14T13:20:24;2.47;;;2.17;;
23113;SDS011;11726;50.122;8.832;2023-05-14T13:22:52;2.10;;;2.00;;
23113;SDS011;11726;50.122;8.832;2023-05-14T13:25:19;2.40;;;2.00;;
23113;SDS011;11726;50.122;8.832;2023-05-14T13:27:46;2.33;;;2.00;;
23113;SDS011;11726;50.122;8.832;2023-05-14T13:30:16;2.38;;;2.17;;
23113;SDS011;11726;50.122;8.832;2023-05-14T13:32:44;4.15;;;2.33;;
23113;SDS011;11726;50.122;8.832;2023-05-14T13:35:13;2.08;;;1.83;;
23113;SDS011;11726;50.122;8.832;2023-05-14T13:37:41;2.40;;;2.20;;
23113;SDS011;11726;50.122;8.832;2023-05-14T13:40:09;2.22;;;2.10;;
23113;SDS011;11726;50.122;8.832;2023-05-14T13:42:36;2.58;;;2.33;;
23113;SDS011;11726;50.122;8.832;2023-05-14T13:45:24;2.42;;;2.22;;
23113;SDS011;11726;50.122;8.832;2023-05-14T13:47:51;2.60;;;2.40;;
23113;SDS011;11726;50.122;8.832;2023-05-14T13:50:27;2.65;;;1.95;;
23113;SDS011;11726;50.122;8.832;2023-05-14T13:52:59;2.30;;;2.10;;
23113;SDS011;11726;50.122;8.832;2023-05-14T13:55:26;2.03;;;1.83;;
23113;SDS011;11726;50.122;8.832;2023-05-14T13:57:53;2.38;;;2.17;;
23113;SDS011;11726;50.122;8.832;2023-05-14T14:00:20;2.65;;;2.03;;
23113;SDS011;11726;50.122;8.832;2023-05-14T14:02:47;2.72;;;1.90;;
23113;SDS011;11726;50.122;8.832;2023-05-14T14:05:14;2.90;;;2.30;;
23113;SDS011;11726;50.122;8.832;2023-05-14T14:07:41;2.30;;;1.98;;
23113;SDS011;11726;50.122;8.832;2023-05-14T14:10:07;2.15;;;2.00;;
23113;SDS011;11726;50.122;8.832;2023-05-14T14:12:35;2.53;;;1.77;;
23113;SDS011;11726;50.122;8.832;2023-05-14T14:15:02;2.47;;;1.90;;
23113;SDS011;11726;50.122;8.832;2023-05-14T14:17:31;1.90;;;1.80;;
23113;SDS011;11726;50.122;8.832;2023-05-14T14:20:00;1.83;;;1.73;;
23113;SDS011;11726;50.122;8.832;2023-05-14T14:22:27;2.10;;;1.90;;
23113;SDS011;11726;50.122;8.832;2023-05-14T14:24:54;5.68;;;2.20;;
23113;SDS011;11726;50.122;8.832;2023-05-14T14:27:21;2.90;;;1.98;;
23113;SDS011;11726;50.122;8.832;2023-05-14T14:29:47;2.25;;;1.95;;
23113;SDS011;11726;50.122;8.832;2023-05-14T14:32:14;2.38;;;1.80;;
23113;SDS011;11726;50.122;8.832;2023-05-14T14:34:41;2.25;;;2.00;;
23113;SDS011;11726;50.122;8.832;2023-05-14T14:37:07;1.90;;;1.80;;
23113;SDS011;11726;50.122;8.832;2023-05-14T14:39:34;2.13;;;1.63;;
23113;SDS011;11726;50.122;8.832;2023-05-14T14:42:01;2.83;;;1.90;;
23113;SDS011;11726;50.122;8.832;2023-05-14T14:44:28;2.45;;;1.77;;
23113;SDS011;11726;50.122;8.832;2023-05-14T14:46:55;1.83;;;1.70;;
23113;SDS011;11726;50.122;8.832;2023-05-14T14:49:22;1.85;;;1.65;;
23113;SDS011;11726;50.122;8.832;2023-05-14T14:51:48;2.85;;;1.58;;
23113;SDS011;11726;50.122;8.832;2023-05-14T14:54:15;2.78;;;1.70;;
23113;SDS011;11726;50.122;8.832;2023-05-14T14:56:42;1.92;;;1.73;;
23113;SDS011;11726;50.122;8.832;2023-05-14T14:59:10;1.98;;;1.85;;
23113;SDS011;11726;50.122;8.832;2023-05-14T15:01:37;2.35;;;1.80;;
23113;SDS011;11726;50.122;8.832;2023-05-14T15:04:04;1.95;;;1.40;;
23113;SDS011;11726;50.122;8.832;2023-05-14T15:06:32;1.50;;;1.40;;
23113;SDS011;11726;50.122;8.832;2023-05-14T15:08:58;1.75;;;1.65;;
23113;SDS011;11726;50.122;8.832;2023-05-14T15:11:25;2.35;;;1.70;;
23113;SDS011;11726;50.122;8.832;2023-05-14T15:13:54;2.50;;;1.38;;